createdAt,value
2018-05-06T00:01:59.363Z,8.03
2018-05-06T00:04:26.951Z,7.73
2018-05-06T00:06:55.300Z,8.10
2018-05-06T00:09:22.984Z,8.27
2018-05-06T00:11:50.559Z,8.20
2018-05-06T00:14:18.144Z,8.10
2018-05-06T00:16:45.880Z,7.97
2018-05-06T00:19:13.755Z,8.30
2018-05-06T00:21:41.319Z,7.90
2018-05-06T00:24:09.094Z,8.67
2018-05-06T00:26:36.685Z,9.23
2018-05-06T00:29:04.279Z,8.80
2018-05-06T00:31:32.094Z,9.40
2018-05-06T00:33:59.737Z,8.57
2018-05-06T00:36:27.307Z,8.97
2018-05-06T00:38:54.936Z,8.33
2018-05-06T00:41:22.615Z,8.80
2018-05-06T00:43:50.265Z,8.77
2018-05-06T00:46:18.682Z,8.97
2018-05-06T00:48:46.360Z,8.97
2018-05-06T00:51:13.957Z,9.77
2018-05-06T00:53:41.758Z,9.60
2018-05-06T00:56:09.341Z,9.40
2018-05-06T00:58:36.968Z,9.90
2018-05-06T01:01:04.605Z,10.40
2018-05-06T01:03:32.254Z,13.53
2018-05-06T01:05:59.901Z,10.80
2018-05-06T01:08:27.902Z,10.13
2018-05-06T01:10:55.506Z,9.53
2018-05-06T01:13:23.088Z,9.40
2018-05-06T01:15:50.708Z,9.70
2018-05-06T01:18:18.316Z,9.43
2018-05-06T01:20:45.884Z,8.80
2018-05-06T01:23:14.322Z,8.37
2018-05-06T01:25:41.977Z,8.77
2018-05-06T01:28:10.544Z,9.03
2018-05-06T01:30:38.328Z,9.53
2018-05-06T01:33:05.896Z,9.67
2018-05-06T01:35:33.540Z,9.73
2018-05-06T01:38:01.169Z,10.77
2018-05-06T01:40:28.777Z,9.40
2018-05-06T01:42:56.349Z,10.30
2018-05-06T01:45:24.068Z,9.90
2018-05-06T01:47:51.704Z,10.37
2018-05-06T01:50:19.279Z,10.27
2018-05-06T01:52:47.914Z,9.63
2018-05-06T01:55:15.584Z,10.67
2018-05-06T01:57:43.190Z,10.23
2018-05-06T02:00:11.876Z,10.77
2018-05-06T02:02:39.464Z,11.03
2018-05-06T02:05:07.096Z,10.50
2018-05-06T02:07:34.715Z,10.60
2018-05-06T02:10:02.359Z,10.27
2018-05-06T02:12:30.686Z,10.50
2018-05-06T02:14:58.400Z,9.97
2018-05-06T02:17:25.976Z,9.77
2018-05-06T02:19:53.559Z,10.43
2018-05-06T02:22:21.180Z,10.13
2018-05-06T02:24:48.749Z,10.50
2018-05-06T02:27:16.377Z,9.23
2018-05-06T02:29:43.992Z,10.30
2018-05-06T02:32:11.663Z,10.23
2018-05-06T02:34:39.257Z,10.43
2018-05-06T02:37:07.040Z,10.40
2018-05-06T02:39:34.656Z,10.50
2018-05-06T02:42:02.240Z,10.30
2018-05-06T02:44:29.928Z,10.67
2018-05-06T02:46:57.493Z,10.37
2018-05-06T02:49:25.964Z,10.50
2018-05-06T02:51:53.680Z,10.47
2018-05-06T02:54:21.265Z,10.27
2018-05-06T02:56:49.978Z,11.20
2018-05-06T02:59:17.711Z,9.97
2018-05-06T03:01:45.364Z,9.73
2018-05-06T03:04:13.012Z,10.53
2018-05-06T03:06:40.728Z,9.97
2018-05-06T03:09:08.313Z,9.70
2018-05-06T03:11:35.895Z,9.90
2018-05-06T03:14:03.600Z,9.83
2018-05-06T03:16:31.192Z,9.10
2018-05-06T03:18:59.399Z,10.17
2018-05-06T03:21:27.008Z,10.03
2018-05-06T03:23:54.640Z,9.80
2018-05-06T03:26:22.231Z,9.30
2018-05-06T03:28:49.851Z,9.53
2018-05-06T03:31:17.455Z,9.70
2018-05-06T03:33:45.032Z,9.87
2018-05-06T03:36:12.812Z,9.77
2018-05-06T03:38:40.384Z,8.97
2018-05-06T03:41:07.970Z,9.40
2018-05-06T03:43:35.627Z,9.10
2018-05-06T03:46:03.308Z,10.13
2018-05-06T03:48:30.883Z,10.33
2018-05-06T03:50:59.496Z,10.60
2018-05-06T03:53:27.127Z,10.60
2018-05-06T03:56:16.368Z,10.87
2018-05-06T03:58:55.932Z,10.43
2018-05-06T04:01:25.313Z,11.30
2018-05-06T04:03:52.893Z,12.27
2018-05-06T04:06:21.103Z,12.63
2018-05-06T04:08:48.831Z,11.90
2018-05-06T04:11:16.472Z,12.10
2018-05-06T04:13:44.132Z,10.77
2018-05-06T04:16:12.039Z,10.70
2018-05-06T04:18:39.639Z,10.50
2018-05-06T04:21:07.264Z,10.30
2018-05-06T04:23:34.988Z,9.97
2018-05-06T04:26:02.560Z,10.27
2018-05-06T04:28:30.200Z,9.47
2018-05-06T04:30:57.938Z,9.03
2018-05-06T04:33:25.510Z,9.80
2018-05-06T04:35:53.809Z,10.00
2018-05-06T04:38:21.424Z,9.33
2018-05-06T04:40:49.012Z,9.17
2018-05-06T04:43:16.643Z,9.47
2018-05-06T04:45:44.295Z,9.03
2018-05-06T04:48:11.888Z,8.93
2018-05-06T04:50:40.418Z,9.47
2018-05-06T04:53:08.031Z,8.87
2018-05-06T04:55:35.631Z,8.70
2018-05-06T04:58:03.210Z,9.00
2018-05-06T05:00:30.976Z,9.20
2018-05-06T05:02:58.612Z,9.53
2018-05-06T05:05:26.197Z,9.40
2018-05-06T05:07:53.811Z,9.77
2018-05-06T05:10:21.381Z,8.97
2018-05-06T05:12:48.968Z,49.10
2018-05-06T05:15:16.785Z,32.23
2018-05-06T05:17:44.370Z,9.77
2018-05-06T05:20:12.048Z,11.90
2018-05-06T05:22:39.673Z,9.20
2018-05-06T05:25:07.311Z,9.30
2018-05-06T05:27:34.958Z,10.80
2018-05-06T05:30:02.692Z,23.80
2018-05-06T05:32:30.336Z,10.93
2018-05-06T05:34:57.924Z,17.00
2018-05-06T05:37:25.543Z,10.30
2018-05-06T05:39:53.672Z,10.23
2018-05-06T05:42:21.266Z,9.67
2018-05-06T05:44:48.897Z,9.80
2018-05-06T05:47:16.479Z,8.70
2018-05-06T05:49:44.060Z,9.03
2018-05-06T05:52:11.834Z,8.90
2018-05-06T05:54:39.419Z,9.53
2018-05-06T05:57:07.004Z,10.13
2018-05-06T05:59:34.719Z,9.70
2018-05-06T06:02:02.500Z,9.40
2018-05-06T06:04:30.128Z,9.37
2018-05-06T06:06:57.763Z,9.83
2018-05-06T06:09:25.360Z,9.57
2018-05-06T06:11:52.983Z,9.60
2018-05-06T06:14:20.711Z,8.90
2018-05-06T06:16:48.348Z,9.17
2018-05-06T06:19:15.993Z,8.60
2018-05-06T06:21:43.740Z,9.17
2018-05-06T06:24:11.344Z,9.03
2018-05-06T06:26:38.915Z,8.67
2018-05-06T06:29:06.550Z,8.40
2018-05-06T06:31:34.135Z,8.30
2018-05-06T06:34:01.771Z,8.57
2018-05-06T06:36:29.416Z,8.03
2018-05-06T06:38:57.058Z,8.43
2018-05-06T06:41:24.683Z,8.30
2018-05-06T06:43:52.493Z,8.60
2018-05-06T06:46:20.081Z,8.03
2018-05-06T06:48:47.755Z,8.07
2018-05-06T06:51:15.374Z,7.53
2018-05-06T06:53:43.712Z,7.80
2018-05-06T06:56:11.347Z,7.87
2018-05-06T06:58:38.970Z,7.40
2018-05-06T07:01:06.602Z,7.07
2018-05-06T07:03:34.247Z,8.00
2018-05-06T07:06:01.935Z,7.28
2018-05-06T07:08:29.507Z,6.80
2018-05-06T07:10:57.191Z,7.20
2018-05-06T07:13:24.897Z,6.97
2018-05-06T07:15:52.492Z,8.05
2018-05-06T07:18:20.170Z,7.65
2018-05-06T07:20:47.888Z,7.68
2018-05-06T07:23:15.477Z,7.15
2018-05-06T07:25:43.112Z,7.30
2018-05-06T07:28:11.287Z,6.95
2018-05-06T07:30:39.636Z,7.85
2018-05-06T07:33:07.232Z,6.68
2018-05-06T07:35:34.847Z,7.43
2018-05-06T07:38:02.490Z,7.37
2018-05-06T07:40:30.064Z,8.05
2018-05-06T07:42:57.679Z,7.97
2018-05-06T07:45:25.317Z,7.97
2018-05-06T07:47:52.897Z,7.55
2018-05-06T07:50:20.641Z,6.20
2018-05-06T07:52:48.860Z,7.07
2018-05-06T07:55:17.443Z,6.70
2018-05-06T07:57:45.077Z,6.62
2018-05-06T08:00:12.651Z,5.65
2018-05-06T08:02:40.259Z,6.10
2018-05-06T08:05:09.848Z,6.75
2018-05-06T08:07:37.478Z,6.57
2018-05-06T08:10:05.680Z,6.68
2018-05-06T08:12:33.468Z,5.93
2018-05-06T08:15:01.044Z,6.30
2018-05-06T08:17:28.624Z,5.93
2018-05-06T08:19:56.275Z,5.70
2018-05-06T08:22:23.865Z,5.45
2018-05-06T08:24:51.447Z,5.72
2018-05-06T08:27:19.150Z,5.70
2018-05-06T08:29:46.737Z,5.75
2018-05-06T08:32:14.377Z,5.62
2018-05-06T08:34:42.053Z,5.10
2018-05-06T08:37:09.631Z,5.32
2018-05-06T08:39:37.203Z,5.45
2018-05-06T08:42:04.950Z,5.40
2018-05-06T08:44:32.527Z,5.55
2018-05-06T08:47:00.112Z,5.28
2018-05-06T08:49:27.849Z,5.37
2018-05-06T08:51:55.424Z,5.30
2018-05-06T08:54:23.080Z,5.30
2018-05-06T08:56:50.776Z,4.95
2018-05-06T08:59:18.433Z,5.95
2018-05-06T09:01:46.034Z,5.60
2018-05-06T09:04:13.768Z,6.10
2018-05-06T09:06:42.061Z,4.70
2018-05-06T09:09:09.648Z,5.40
2018-05-06T09:11:37.332Z,5.50
2018-05-06T09:14:04.984Z,4.78
2018-05-06T09:16:32.590Z,5.82
2018-05-06T09:19:00.350Z,4.97
2018-05-06T09:21:27.943Z,5.50
2018-05-06T09:23:55.513Z,4.87
2018-05-06T09:26:23.202Z,5.80
2018-05-06T09:28:50.884Z,5.25
2018-05-06T09:31:18.460Z,4.62
2018-05-06T09:33:46.200Z,5.18
2018-05-06T09:36:13.835Z,5.65
2018-05-06T09:38:41.479Z,4.60
2018-05-06T09:41:09.240Z,5.65
2018-05-06T09:43:36.847Z,5.07
2018-05-06T09:46:04.447Z,4.80
2018-05-06T09:48:32.144Z,5.28
2018-05-06T09:50:59.720Z,5.35
2018-05-06T09:53:27.287Z,5.60
2018-05-06T09:55:55.008Z,5.15
2018-05-06T09:58:22.649Z,4.93
2018-05-06T10:00:50.455Z,6.12
2018-05-06T10:03:18.180Z,5.53
2018-05-06T10:05:45.755Z,5.50
2018-05-06T10:08:13.691Z,5.40
2018-05-06T10:10:41.420Z,5.95
2018-05-06T10:13:09.003Z,5.00
2018-05-06T10:15:36.657Z,4.97
2018-05-06T10:18:04.374Z,5.43
2018-05-06T10:20:32.027Z,5.05
2018-05-06T10:22:59.653Z,5.93
2018-05-06T10:25:27.257Z,6.43
2018-05-06T10:27:54.899Z,5.50
2018-05-06T10:30:22.534Z,5.85
2018-05-06T10:32:50.171Z,5.60
2018-05-06T10:35:17.812Z,5.85
2018-05-06T10:37:45.389Z,6.00
2018-05-06T10:40:13.184Z,5.60
2018-05-06T10:42:40.769Z,5.85
2018-05-06T10:45:08.419Z,6.10
2018-05-06T10:47:36.032Z,6.65
2018-05-06T10:50:03.675Z,6.25
2018-05-06T10:52:31.281Z,5.93
2018-05-06T10:54:59.755Z,5.62
2018-05-06T10:57:27.420Z,5.43
2018-05-06T10:59:55.007Z,5.50
2018-05-06T11:02:22.630Z,5.90
2018-05-06T11:04:50.215Z,6.00
2018-05-06T11:07:17.827Z,5.70
2018-05-06T11:09:45.747Z,7.37
2018-05-06T11:12:13.337Z,7.20
2018-05-06T11:14:40.920Z,10.90
2018-05-06T11:17:08.563Z,8.90
2018-05-06T11:19:36.185Z,10.90
2018-05-06T11:22:03.841Z,10.60
2018-05-06T11:24:31.595Z,10.00
2018-05-06T11:26:59.185Z,9.20
2018-05-06T11:29:26.838Z,9.37
2018-05-06T11:31:54.500Z,9.87
2018-05-06T11:34:22.149Z,9.73
2018-05-06T11:36:49.723Z,8.20
2018-05-06T11:39:17.448Z,8.57
2018-05-06T11:41:45.031Z,8.10
2018-05-06T11:44:12.620Z,7.80
2018-05-06T11:46:40.310Z,9.00
2018-05-06T11:49:07.881Z,7.87
2018-05-06T11:51:35.472Z,8.10
2018-05-06T11:54:03.095Z,8.67
2018-05-06T11:56:30.656Z,8.47
2018-05-06T11:58:58.245Z,8.40
2018-05-06T12:01:26.061Z,8.10
2018-05-06T12:03:53.735Z,8.70
2018-05-06T12:06:21.393Z,7.37
2018-05-06T12:08:49.273Z,7.60
2018-05-06T12:11:16.917Z,7.40
2018-05-06T12:13:44.504Z,7.03
2018-05-06T12:16:12.128Z,7.70
2018-05-06T12:18:39.701Z,5.83
2018-05-06T12:21:07.299Z,6.00
2018-05-06T12:23:34.952Z,6.33
2018-05-06T12:26:02.597Z,6.33
2018-05-06T12:28:30.374Z,5.90
2018-05-06T12:30:58.228Z,8.13
2018-05-06T12:33:25.909Z,6.97
2018-05-06T12:35:53.650Z,6.50
2018-05-06T12:38:21.375Z,7.20
2018-05-06T12:40:48.953Z,6.53
2018-05-06T12:43:16.584Z,7.33
2018-05-06T12:45:44.212Z,7.30
2018-05-06T12:48:11.860Z,7.37
2018-05-06T12:50:39.494Z,7.13
2018-05-06T12:53:07.130Z,7.40
2018-05-06T12:55:34.707Z,7.30
2018-05-06T12:58:02.306Z,6.97
2018-05-06T13:00:30.019Z,7.83
2018-05-06T13:02:57.647Z,7.73
2018-05-06T13:05:25.280Z,7.80
2018-05-06T13:07:52.983Z,8.00
2018-05-06T13:10:20.701Z,8.70
2018-05-06T13:12:48.432Z,8.70
2018-05-06T13:15:16.137Z,8.73
2018-05-06T13:17:43.711Z,9.00
2018-05-06T13:20:11.381Z,7.73
2018-05-06T13:22:39.101Z,8.20
2018-05-06T13:25:06.683Z,8.30
2018-05-06T13:27:34.321Z,8.50
2018-05-06T13:30:02.119Z,7.37
2018-05-06T13:32:30.491Z,8.77
2018-05-06T13:34:58.161Z,7.87
2018-05-06T13:37:25.831Z,7.93
2018-05-06T13:39:53.482Z,6.07
2018-05-06T13:42:21.069Z,6.20
2018-05-06T13:44:48.795Z,6.43
2018-05-06T13:47:16.395Z,7.10
2018-05-06T13:49:43.987Z,7.57
2018-05-06T13:52:11.828Z,7.63
2018-05-06T13:54:39.468Z,8.07
2018-05-06T13:57:07.076Z,7.77
2018-05-06T13:59:34.790Z,8.60
2018-05-06T14:02:03.179Z,7.97
2018-05-06T14:04:30.984Z,7.40
2018-05-06T14:06:58.708Z,7.57
2018-05-06T14:09:26.289Z,7.53
2018-05-06T14:11:53.856Z,7.30
2018-05-06T14:14:22.588Z,7.40
2018-05-06T14:16:50.155Z,6.37
2018-05-06T14:19:17.807Z,6.67
2018-05-06T14:21:45.449Z,7.63
2018-05-06T14:24:13.040Z,6.67
2018-05-06T14:26:40.688Z,6.40
2018-05-06T14:29:08.380Z,6.07
2018-05-06T14:31:35.951Z,6.17
2018-05-06T14:34:04.359Z,5.97
2018-05-06T14:36:31.974Z,6.33
2018-05-06T14:38:59.608Z,5.87
2018-05-06T14:41:27.256Z,5.90
2018-05-06T14:43:54.864Z,6.10
2018-05-06T14:46:34.226Z,5.73
2018-05-06T14:49:01.851Z,5.90
2018-05-06T14:51:29.428Z,5.63
2018-05-06T14:53:56.987Z,7.50
2018-05-06T14:56:25.350Z,7.67
2018-05-06T14:58:52.979Z,8.77
2018-05-06T15:01:20.580Z,8.37
2018-05-06T15:03:48.253Z,9.20
2018-05-06T15:06:15.860Z,8.50
2018-05-06T15:08:43.495Z,8.33
2018-05-06T15:11:11.205Z,7.87
2018-05-06T15:13:38.854Z,7.80
2018-05-06T15:16:06.800Z,7.73
2018-05-06T15:18:34.576Z,8.30
2018-05-06T15:21:02.172Z,10.03
2018-05-06T15:23:29.809Z,11.47
2018-05-06T15:25:57.510Z,10.60
2018-05-06T15:28:25.083Z,11.40
2018-05-06T15:30:52.668Z,11.40
2018-05-06T15:33:20.420Z,12.50
2018-05-06T15:35:48.004Z,12.53
2018-05-06T15:38:16.405Z,11.93
2018-05-06T15:40:44.043Z,12.30
2018-05-06T15:43:11.662Z,11.93
2018-05-06T15:45:39.320Z,12.63
2018-05-06T15:48:07.032Z,12.47
2018-05-06T15:50:34.860Z,11.03
2018-05-06T15:53:02.454Z,11.70
2018-05-06T15:55:30.183Z,10.70
2018-05-06T15:57:57.806Z,10.47
2018-05-06T16:00:25.391Z,9.37
2018-05-06T16:03:05.055Z,9.73
2018-05-06T16:05:32.637Z,10.00
2018-05-06T16:08:00.292Z,9.77
2018-05-06T16:10:28.016Z,9.13
2018-05-06T16:12:55.657Z,8.93
2018-05-06T16:15:23.329Z,8.10
2018-05-06T16:17:51.061Z,8.83
2018-05-06T16:20:18.651Z,7.90
2018-05-06T16:22:46.250Z,7.60
2018-05-06T16:25:13.932Z,7.63
2018-05-06T16:27:41.580Z,7.67
2018-05-06T16:30:09.155Z,7.77
2018-05-06T16:32:38.901Z,7.00
2018-05-06T16:35:06.496Z,7.00
2018-05-06T16:37:34.169Z,7.50
2018-05-06T16:40:01.819Z,6.87
2018-05-06T16:42:29.435Z,7.07
2018-05-06T16:44:57.032Z,7.33
2018-05-06T16:47:24.661Z,7.30
2018-05-06T16:49:52.237Z,7.67
2018-05-06T16:52:19.914Z,7.87
2018-05-06T16:54:47.612Z,7.60
2018-05-06T16:57:15.355Z,7.57
2018-05-06T16:59:42.945Z,7.30
2018-05-06T17:02:10.660Z,7.33
2018-05-06T17:04:38.300Z,6.80
2018-05-06T17:07:05.893Z,7.43
2018-05-06T17:09:33.685Z,6.90
2018-05-06T17:12:01.337Z,7.60
2018-05-06T17:14:28.923Z,6.70
2018-05-06T17:16:56.681Z,6.30
2018-05-06T17:19:24.380Z,6.60
2018-05-06T17:21:52.012Z,6.80
2018-05-06T17:24:19.805Z,6.53
2018-05-06T17:26:47.409Z,6.33
2018-05-06T17:29:15.017Z,6.13
2018-05-06T17:31:42.773Z,6.03
2018-05-06T17:34:10.457Z,6.47
2018-05-06T17:36:38.045Z,7.10
2018-05-06T17:39:06.724Z,6.17
2018-05-06T17:41:34.390Z,6.33
2018-05-06T17:44:01.989Z,6.70
2018-05-06T17:46:29.659Z,6.30
2018-05-06T17:48:57.329Z,6.10
2018-05-06T17:51:24.915Z,6.20
2018-05-06T17:53:52.544Z,6.30
2018-05-06T17:56:20.135Z,5.87
2018-05-06T17:58:47.769Z,6.23
2018-05-06T18:01:15.431Z,5.63
2018-05-06T18:03:43.001Z,6.07
2018-05-06T18:06:10.645Z,6.10
2018-05-06T18:08:38.313Z,6.67
2018-05-06T18:11:05.956Z,6.40
2018-05-06T18:13:33.544Z,6.70
2018-05-06T18:16:01.242Z,6.70
2018-05-06T18:18:28.883Z,6.40
2018-05-06T18:20:56.605Z,6.40
2018-05-06T18:23:24.320Z,6.70
2018-05-06T18:25:51.907Z,6.10
2018-05-06T18:28:19.505Z,6.57
2018-05-06T18:30:47.223Z,7.63
2018-05-06T18:33:14.869Z,7.20
2018-05-06T18:35:42.476Z,8.07
2018-05-06T18:38:10.156Z,9.43
2018-05-06T18:40:37.730Z,9.10
2018-05-06T18:43:05.346Z,10.00
2018-05-06T18:45:32.992Z,8.90
2018-05-06T18:48:00.685Z,8.90
2018-05-06T18:50:28.300Z,9.30
2018-05-06T18:52:56.822Z,7.70
2018-05-06T18:55:24.467Z,8.33
2018-05-06T18:57:52.065Z,8.53
2018-05-06T19:00:19.732Z,8.80
2018-05-06T19:02:47.402Z,8.70
2018-05-06T19:05:14.969Z,8.33
2018-05-06T19:07:43.306Z,7.60
2018-05-06T19:10:11.883Z,8.23
2018-05-06T19:12:39.564Z,8.33
2018-05-06T19:15:07.242Z,8.00
2018-05-06T19:17:34.817Z,8.03
2018-05-06T19:20:02.404Z,8.40
2018-05-06T19:22:30.196Z,8.60
2018-05-06T19:24:57.870Z,7.53
2018-05-06T19:27:25.456Z,6.90
2018-05-06T19:29:53.084Z,7.87
2018-05-06T19:32:20.738Z,6.87
2018-05-06T19:34:49.247Z,7.30
2018-05-06T19:37:16.873Z,6.73
2018-05-06T19:39:45.273Z,7.80
2018-05-06T19:42:12.954Z,7.63
2018-05-06T19:44:40.583Z,7.30
2018-05-06T19:47:08.229Z,6.50
2018-05-06T19:49:35.809Z,6.73
2018-05-06T19:52:03.529Z,7.07
2018-05-06T19:54:31.111Z,6.90
2018-05-06T19:56:58.679Z,7.00
2018-05-06T19:59:26.373Z,6.97
2018-05-06T20:01:53.971Z,7.23
2018-05-06T20:04:21.603Z,6.80
2018-05-06T20:06:49.219Z,6.33
2018-05-06T20:09:16.793Z,6.67
2018-05-06T20:11:44.366Z,7.33
2018-05-06T20:14:12.011Z,6.90
2018-05-06T20:16:39.851Z,6.50
2018-05-06T20:19:07.508Z,6.37
2018-05-06T20:21:35.331Z,6.90
2018-05-06T20:24:03.141Z,6.83
2018-05-06T20:26:30.775Z,7.03
2018-05-06T20:28:58.464Z,6.67
2018-05-06T20:31:26.080Z,6.70
2018-05-06T20:33:53.699Z,6.40
2018-05-06T20:36:21.419Z,6.73
2018-05-06T20:38:50.012Z,6.57
2018-05-06T20:41:17.663Z,6.90
2018-05-06T20:43:46.022Z,7.07
2018-05-06T20:46:13.581Z,8.10
2018-05-06T20:48:41.163Z,7.57
2018-05-06T20:51:08.845Z,7.80
2018-05-06T20:53:36.499Z,7.67
2018-05-06T20:56:04.168Z,8.20
2018-05-06T20:58:31.880Z,7.57
2018-05-06T21:00:59.517Z,7.53
2018-05-06T21:03:27.098Z,7.80
2018-05-06T21:05:54.737Z,7.40
2018-05-06T21:08:22.310Z,7.33
2018-05-06T21:10:49.885Z,7.37
2018-05-06T21:13:17.510Z,6.73
2018-05-06T21:15:45.102Z,7.17
2018-05-06T21:18:12.735Z,7.20
2018-05-06T21:20:40.408Z,6.83
2018-05-06T21:23:07.991Z,7.30
2018-05-06T21:25:36.029Z,7.07
2018-05-06T21:28:03.677Z,7.50
2018-05-06T21:30:31.278Z,6.57
2018-05-06T21:32:58.882Z,6.13
2018-05-06T21:35:26.605Z,6.50
2018-05-06T21:37:54.179Z,6.67
2018-05-06T21:40:21.837Z,6.47
2018-05-06T21:42:49.546Z,6.43
2018-05-06T21:45:17.190Z,6.47
2018-05-06T21:47:44.772Z,6.40
2018-05-06T21:50:12.462Z,6.67
2018-05-06T21:52:40.040Z,6.27
2018-05-06T21:55:07.636Z,6.10
2018-05-06T21:57:35.370Z,6.67
2018-05-06T22:00:02.985Z,6.37
2018-05-06T22:02:30.628Z,6.57
2018-05-06T22:04:58.402Z,7.03
2018-05-06T22:07:26.053Z,7.27
2018-05-06T22:09:53.720Z,6.93
2018-05-06T22:12:21.460Z,6.70
2018-05-06T22:14:49.189Z,6.57
2018-05-06T22:17:16.841Z,7.57
2018-05-06T22:19:44.627Z,7.27
2018-05-06T22:22:12.196Z,6.93
2018-05-06T22:24:39.792Z,7.50
2018-05-06T22:27:07.559Z,7.10
2018-05-06T22:29:35.193Z,7.17
2018-05-06T22:32:02.859Z,7.70
2018-05-06T22:34:30.535Z,7.43
2018-05-06T22:36:58.177Z,7.20
2018-05-06T22:39:25.820Z,7.87
2018-05-06T22:41:53.447Z,8.00
2018-05-06T22:44:21.096Z,7.37
2018-05-06T22:46:48.684Z,7.33
2018-05-06T22:49:16.391Z,7.53
2018-05-06T22:51:43.991Z,7.37
2018-05-06T22:54:11.589Z,7.40
2018-05-06T22:56:39.220Z,7.50
2018-05-06T22:59:06.801Z,7.50
2018-05-06T23:01:34.428Z,7.37
2018-05-06T23:04:02.080Z,7.40
2018-05-06T23:06:29.703Z,7.67
2018-05-06T23:08:57.368Z,7.73
2018-05-06T23:11:25.090Z,7.53
2018-05-06T23:13:52.733Z,8.10
2018-05-06T23:16:20.402Z,7.33
2018-05-06T23:18:48.030Z,6.70
2018-05-06T23:21:15.672Z,7.40
2018-05-06T23:23:43.266Z,7.87
2018-05-06T23:26:10.984Z,6.97
2018-05-06T23:28:38.603Z,7.90
2018-05-06T23:31:06.231Z,7.63
2018-05-06T23:33:33.877Z,7.97
2018-05-06T23:36:01.552Z,7.57
2018-05-06T23:38:29.156Z,7.60
2018-05-06T23:40:56.876Z,7.37
2018-05-06T23:43:24.455Z,7.77
2018-05-06T23:45:54.034Z,7.60
2018-05-06T23:48:21.667Z,7.83
2018-05-06T23:50:49.239Z,7.53
2018-05-06T23:53:16.820Z,7.03
2018-05-06T23:55:44.532Z,7.60
2018-05-06T23:58:12.191Z,7.97
